This is the latest recevied weather packets stored in our database for station/object AJ4FJ-13. If no packets are shown the sender has not sent any weather packets the latest 10 day(s).
| Time | Temp. | Humidity | Pressure | Rain* | Wind** | Luminosity | Snow |
|---|---|---|---|---|---|---|---|
| 1777781488 | 11.67° C | 64% | 1015 hPa | 0 mm | 0 m/s | - | - |
| 1777778170 | 8.33° C | 82% | 1016 hPa | 0 mm | 0 m/s | - | - |
| 1777777868 | 8.33° C | 82% | 1016 hPa | 0 mm | 0 m/s | - | - |
| 1777777566 | 8.33° C | 82% | 1016 hPa | 0 mm | 0 m/s | - | - |
| 1777777265 | 8.33° C | 81% | 1016 hPa | 0 mm | 0 m/s | - | - |
| 1777776964 | 8.89° C | 79% | 1016 hPa | 0 mm | 0 m/s | - | - |
| 1777776361 | 8.89° C | 77% | 1016 hPa | 0 mm | 0 m/s | - | - |
| 1777776060 | 8.89° C | 76% | 1016 hPa | 0 mm | 0 m/s | - | - |
| 1777771535 | 11.67° C | 64% | 1015 hPa | 0 mm | 0 m/s | - | - |
| 1777771234 | 12.22° C | 61% | 1015 hPa | 0 mm | 0 m/s | - | - |
| 1777769423 | 14.44° C | 49% | 1015 hPa | 0 mm | 0 m/s | - | - |
| 1777769121 | 15.56° C | 47% | 1015 hPa | 0 mm | 0 m/s | - | - |
| 1777767611 | 19.44° C | 34% | 1015 hPa | 0 mm | 0 m/s | - | - |
| 1777765197 | 21.67° C | 28% | 1015 hPa | 0 mm | 0 m/s | - | - |
| 1777764594 | 21.67° C | 28% | 1015 hPa | 0 mm | 2.68 m/s, 29° | - | - |
| 1777763990 | 21.67° C | 29% | 1015 hPa | 0 mm | 1.79 m/s, 356° | - | - |
| 1777762475 | 21.67° C | 26% | 1015 hPa | 0 mm | 2.68 m/s, 319° | - | - |
| 1777758842 | 21.11° C | 30% | 1014 hPa | 0 mm | 4.02 m/s, 295° | - | - |
| 1777758238 | 20.56° C | 32% | 1014 hPa | 0 mm | 3.13 m/s, 356° | - | - |
| 1777754069 | 20.56° C | 32% | 1015 hPa | 0 mm | 2.68 m/s, 331° | - | - |
| 1777753988 | 20.56° C | 32% | 1015 hPa | 0 mm | 2.68 m/s, 331° | - | - |
| 1777753083 | 20.56° C | 30% | 1015 hPa | 0 mm | 3.13 m/s, 339° | - | - |
| 1777751549 | 20.56° C | 27% | 1015 hPa | 0 mm | 3.58 m/s, 340° | - | - |
| 1777750945 | 20.56° C | 27% | 1015 hPa | 0 mm | 4.92 m/s, 344° | - | - |
| 1777750639 | 20.56° C | 28% | 1015 hPa | 0 mm | 4.47 m/s, 21° | - | - |
* Rain latest hour (hover to see other rain measurements)
** Current wind speed in m/s (hover to see current wind gust speed)